sensor_id;sensor_type;location;lat;lon;timestamp;P1;durP1;ratioP1;P2;durP2;ratioP2
18125;SDS011;53956;52.442;13.284;2023-04-25T00:00:31;5.20;;;2.97;;
18125;SDS011;53956;52.442;13.284;2023-04-25T00:02:57;8.10;;;3.07;;
18125;SDS011;53956;52.442;13.284;2023-04-25T00:05:25;7.47;;;3.50;;
18125;SDS011;53956;52.442;13.284;2023-04-25T00:07:51;5.63;;;3.00;;
18125;SDS011;53956;52.442;13.284;2023-04-25T00:10:19;6.03;;;3.20;;
18125;SDS011;53956;52.442;13.284;2023-04-25T00:12:46;4.33;;;2.80;;
18125;SDS011;53956;52.442;13.284;2023-04-25T00:15:15;6.97;;;2.90;;
18125;SDS011;53956;52.442;13.284;2023-04-25T00:17:42;4.83;;;3.10;;
18125;SDS011;53956;52.442;13.284;2023-04-25T00:20:11;6.93;;;2.90;;
18125;SDS011;53956;52.442;13.284;2023-04-25T00:22:38;4.47;;;3.03;;
18125;SDS011;53956;52.442;13.284;2023-04-25T00:25:05;5.03;;;3.00;;
18125;SDS011;53956;52.442;13.284;2023-04-25T00:27:32;4.97;;;3.00;;
18125;SDS011;53956;52.442;13.284;2023-04-25T00:29:58;7.60;;;3.10;;
18125;SDS011;53956;52.442;13.284;2023-04-25T00:32:27;5.97;;;3.10;;
18125;SDS011;53956;52.442;13.284;2023-04-25T00:34:54;5.87;;;3.37;;
18125;SDS011;53956;52.442;13.284;2023-04-25T00:37:22;6.77;;;3.57;;
18125;SDS011;53956;52.442;13.284;2023-04-25T00:39:49;6.60;;;3.60;;
18125;SDS011;53956;52.442;13.284;2023-04-25T00:42:18;5.73;;;3.30;;
18125;SDS011;53956;52.442;13.284;2023-04-25T00:44:46;7.53;;;3.40;;
18125;SDS011;53956;52.442;13.284;2023-04-25T00:47:13;7.00;;;3.57;;
18125;SDS011;53956;52.442;13.284;2023-04-25T00:49:42;6.27;;;3.60;;
18125;SDS011;53956;52.442;13.284;2023-04-25T00:52:10;9.50;;;3.77;;
18125;SDS011;53956;52.442;13.284;2023-04-25T00:54:37;6.97;;;3.77;;
18125;SDS011;53956;52.442;13.284;2023-04-25T00:57:04;7.53;;;3.77;;
18125;SDS011;53956;52.442;13.284;2023-04-25T00:59:31;7.33;;;3.60;;
18125;SDS011;53956;52.442;13.284;2023-04-25T01:01:57;6.03;;;3.37;;
18125;SDS011;53956;52.442;13.284;2023-04-25T01:04:25;8.50;;;4.00;;
18125;SDS011;53956;52.442;13.284;2023-04-25T01:06:54;7.87;;;3.97;;
18125;SDS011;53956;52.442;13.284;2023-04-25T01:09:21;9.27;;;4.30;;
18125;SDS011;53956;52.442;13.284;2023-04-25T01:11:48;9.47;;;4.07;;
18125;SDS011;53956;52.442;13.284;2023-04-25T01:14:15;7.57;;;3.70;;
18125;SDS011;53956;52.442;13.284;2023-04-25T01:16:42;9.10;;;3.70;;
18125;SDS011;53956;52.442;13.284;2023-04-25T01:19:10;7.93;;;3.97;;
18125;SDS011;53956;52.442;13.284;2023-04-25T01:21:38;8.50;;;4.20;;
18125;SDS011;53956;52.442;13.284;2023-04-25T01:24:05;8.40;;;3.70;;
18125;SDS011;53956;52.442;13.284;2023-04-25T01:26:33;8.13;;;4.00;;
18125;SDS011;53956;52.442;13.284;2023-04-25T01:29:03;7.60;;;3.57;;
18125;SDS011;53956;52.442;13.284;2023-04-25T01:31:30;10.43;;;4.07;;
18125;SDS011;53956;52.442;13.284;2023-04-25T01:33:58;10.60;;;4.33;;
18125;SDS011;53956;52.442;13.284;2023-04-25T01:36:27;5.27;;;3.77;;
18125;SDS011;53956;52.442;13.284;2023-04-25T01:38:57;9.47;;;3.90;;
18125;SDS011;53956;52.442;13.284;2023-04-25T01:41:23;10.43;;;4.20;;
18125;SDS011;53956;52.442;13.284;2023-04-25T01:43:50;8.00;;;3.90;;
18125;SDS011;53956;52.442;13.284;2023-04-25T01:46:17;8.67;;;3.90;;
18125;SDS011;53956;52.442;13.284;2023-04-25T01:48:44;7.00;;;3.77;;
18125;SDS011;53956;52.442;13.284;2023-04-25T01:51:11;6.97;;;3.90;;
18125;SDS011;53956;52.442;13.284;2023-04-25T01:53:38;5.77;;;3.80;;
18125;SDS011;53956;52.442;13.284;2023-04-25T01:56:07;9.40;;;4.30;;
18125;SDS011;53956;52.442;13.284;2023-04-25T01:58:34;6.93;;;4.00;;
18125;SDS011;53956;52.442;13.284;2023-04-25T02:01:30;9.40;;;4.37;;
18125;SDS011;53956;52.442;13.284;2023-04-25T02:04:11;9.17;;;4.10;;
18125;SDS011;53956;52.442;13.284;2023-04-25T02:06:41;12.57;;;4.03;;
18125;SDS011;53956;52.442;13.284;2023-04-25T02:09:07;9.17;;;4.40;;
18125;SDS011;53956;52.442;13.284;2023-04-25T02:11:40;7.73;;;4.30;;
18125;SDS011;53956;52.442;13.284;2023-04-25T02:14:45;10.50;;;4.27;;
18125;SDS011;53956;52.442;13.284;2023-04-25T02:17:15;8.23;;;4.60;;
18125;SDS011;53956;52.442;13.284;2023-04-25T02:19:44;8.83;;;4.70;;
18125;SDS011;53956;52.442;13.284;2023-04-25T02:22:11;9.17;;;4.60;;
18125;SDS011;53956;52.442;13.284;2023-04-25T02:24:38;9.17;;;4.90;;
18125;SDS011;53956;52.442;13.284;2023-04-25T02:27:06;9.97;;;5.17;;
18125;SDS011;53956;52.442;13.284;2023-04-25T02:29:34;9.50;;;4.40;;
18125;SDS011;53956;52.442;13.284;2023-04-25T02:32:01;10.20;;;4.50;;
18125;SDS011;53956;52.442;13.284;2023-04-25T02:34:28;10.63;;;5.00;;
18125;SDS011;53956;52.442;13.284;2023-04-25T02:36:54;9.80;;;4.77;;
18125;SDS011;53956;52.442;13.284;2023-04-25T02:39:21;7.33;;;4.63;;
18125;SDS011;53956;52.442;13.284;2023-04-25T02:41:50;7.07;;;4.90;;
18125;SDS011;53956;52.442;13.284;2023-04-25T02:44:18;6.77;;;4.80;;
18125;SDS011;53956;52.442;13.284;2023-04-25T02:46:45;8.53;;;5.10;;
18125;SDS011;53956;52.442;13.284;2023-04-25T02:49:11;8.60;;;5.13;;
18125;SDS011;53956;52.442;13.284;2023-04-25T02:51:38;9.13;;;5.13;;
18125;SDS011;53956;52.442;13.284;2023-04-25T02:54:04;8.57;;;4.87;;
18125;SDS011;53956;52.442;13.284;2023-04-25T02:56:35;10.93;;;5.27;;
18125;SDS011;53956;52.442;13.284;2023-04-25T02:59:05;9.87;;;4.90;;
18125;SDS011;53956;52.442;13.284;2023-04-25T03:01:33;11.37;;;5.13;;
18125;SDS011;53956;52.442;13.284;2023-04-25T03:03:59;10.50;;;5.27;;
18125;SDS011;53956;52.442;13.284;2023-04-25T03:06:26;9.37;;;5.13;;
18125;SDS011;53956;52.442;13.284;2023-04-25T03:08:53;9.33;;;5.10;;
18125;SDS011;53956;52.442;13.284;2023-04-25T03:11:19;9.37;;;5.10;;
18125;SDS011;53956;52.442;13.284;2023-04-25T03:13:46;9.93;;;5.20;;
18125;SDS011;53956;52.442;13.284;2023-04-25T03:16:13;8.83;;;5.03;;
18125;SDS011;53956;52.442;13.284;2023-04-25T03:18:41;8.97;;;5.50;;
18125;SDS011;53956;52.442;13.284;2023-04-25T03:21:08;9.17;;;5.20;;
18125;SDS011;53956;52.442;13.284;2023-04-25T03:23:34;9.67;;;5.23;;
18125;SDS011;53956;52.442;13.284;2023-04-25T03:26:01;10.37;;;5.07;;
18125;SDS011;53956;52.442;13.284;2023-04-25T03:28:28;12.97;;;5.37;;
18125;SDS011;53956;52.442;13.284;2023-04-25T03:30:56;9.03;;;4.90;;
18125;SDS011;53956;52.442;13.284;2023-04-25T03:33:23;6.50;;;4.50;;
18125;SDS011;53956;52.442;13.284;2023-04-25T03:35:51;9.97;;;5.90;;
18125;SDS011;53956;52.442;13.284;2023-04-25T03:38:18;9.57;;;5.57;;
18125;SDS011;53956;52.442;13.284;2023-04-25T03:40:45;9.77;;;5.50;;
18125;SDS011;53956;52.442;13.284;2023-04-25T03:43:37;8.03;;;5.10;;
18125;SDS011;53956;52.442;13.284;2023-04-25T03:46:09;10.80;;;5.77;;
18125;SDS011;53956;52.442;13.284;2023-04-25T03:48:36;9.13;;;5.13;;
18125;SDS011;53956;52.442;13.284;2023-04-25T03:51:05;7.87;;;5.40;;
18125;SDS011;53956;52.442;13.284;2023-04-25T03:53:34;11.33;;;5.87;;
18125;SDS011;53956;52.442;13.284;2023-04-25T03:56:20;8.03;;;5.27;;
18125;SDS011;53956;52.442;13.284;2023-04-25T03:58:53;11.33;;;5.73;;
18125;SDS011;53956;52.442;13.284;2023-04-25T04:01:22;10.50;;;5.50;;
18125;SDS011;53956;52.442;13.284;2023-04-25T04:03:48;11.53;;;5.50;;
18125;SDS011;53956;52.442;13.284;2023-04-25T04:06:17;8.73;;;5.10;;
18125;SDS011;53956;52.442;13.284;2023-04-25T04:08:48;10.93;;;5.10;;
18125;SDS011;53956;52.442;13.284;2023-04-25T04:11:15;11.93;;;5.50;;
18125;SDS011;53956;52.442;13.284;2023-04-25T04:13:42;10.27;;;5.70;;
18125;SDS011;53956;52.442;13.284;2023-04-25T04:16:09;11.43;;;5.50;;
18125;SDS011;53956;52.442;13.284;2023-04-25T04:18:36;8.83;;;5.17;;
18125;SDS011;53956;52.442;13.284;2023-04-25T04:21:02;9.43;;;5.40;;
18125;SDS011;53956;52.442;13.284;2023-04-25T04:23:34;10.10;;;5.60;;
18125;SDS011;53956;52.442;13.284;2023-04-25T04:26:01;10.37;;;5.43;;
18125;SDS011;53956;52.442;13.284;2023-04-25T04:28:40;8.17;;;5.40;;
18125;SDS011;53956;52.442;13.284;2023-04-25T04:31:23;11.50;;;5.53;;
18125;SDS011;53956;52.442;13.284;2023-04-25T04:33:50;10.83;;;5.67;;
18125;SDS011;53956;52.442;13.284;2023-04-25T04:36:17;10.77;;;5.53;;
18125;SDS011;53956;52.442;13.284;2023-04-25T04:38:48;11.07;;;5.60;;
18125;SDS011;53956;52.442;13.284;2023-04-25T04:41:30;9.63;;;5.33;;
18125;SDS011;53956;52.442;13.284;2023-04-25T04:44:10;11.07;;;5.50;;
18125;SDS011;53956;52.442;13.284;2023-04-25T04:46:44;9.17;;;5.40;;
18125;SDS011;53956;52.442;13.284;2023-04-25T04:49:29;12.43;;;5.50;;
18125;SDS011;53956;52.442;13.284;2023-04-25T04:52:18;10.90;;;5.80;;
18125;SDS011;53956;52.442;13.284;2023-04-25T04:55:00;11.20;;;5.80;;
18125;SDS011;53956;52.442;13.284;2023-04-25T04:57:43;9.27;;;5.30;;
18125;SDS011;53956;52.442;13.284;2023-04-25T05:00:10;10.17;;;5.60;;
18125;SDS011;53956;52.442;13.284;2023-04-25T05:02:56;9.93;;;5.57;;
18125;SDS011;53956;52.442;13.284;2023-04-25T05:05:38;11.60;;;5.57;;
18125;SDS011;53956;52.442;13.284;2023-04-25T05:08:31;13.97;;;6.07;;
18125;SDS011;53956;52.442;13.284;2023-04-25T05:11:10;11.83;;;6.20;;
18125;SDS011;53956;52.442;13.284;2023-04-25T05:13:50;11.57;;;6.17;;
18125;SDS011;53956;52.442;13.284;2023-04-25T05:16:37;8.83;;;5.93;;
18125;SDS011;53956;52.442;13.284;2023-04-25T05:19:33;11.53;;;5.50;;
18125;SDS011;53956;52.442;13.284;2023-04-25T05:22:13;12.30;;;5.40;;
18125;SDS011;53956;52.442;13.284;2023-04-25T05:25:08;9.53;;;5.90;;
18125;SDS011;53956;52.442;13.284;2023-04-25T05:27:56;11.27;;;5.77;;
18125;SDS011;53956;52.442;13.284;2023-04-25T05:30:42;10.03;;;5.93;;
18125;SDS011;53956;52.442;13.284;2023-04-25T05:33:27;9.07;;;5.67;;
18125;SDS011;53956;52.442;13.284;2023-04-25T05:35:54;12.77;;;5.67;;
18125;SDS011;53956;52.442;13.284;2023-04-25T05:38:22;11.23;;;5.80;;
18125;SDS011;53956;52.442;13.284;2023-04-25T05:41:15;10.70;;;6.10;;
18125;SDS011;53956;52.442;13.284;2023-04-25T05:43:48;10.40;;;6.00;;
18125;SDS011;53956;52.442;13.284;2023-04-25T05:46:25;10.67;;;6.20;;
18125;SDS011;53956;52.442;13.284;2023-04-25T05:49:12;10.00;;;5.40;;
18125;SDS011;53956;52.442;13.284;2023-04-25T05:52:01;10.30;;;6.10;;
18125;SDS011;53956;52.442;13.284;2023-04-25T05:54:53;10.80;;;6.23;;
18125;SDS011;53956;52.442;13.284;2023-04-25T05:57:20;9.20;;;5.77;;
18125;SDS011;53956;52.442;13.284;2023-04-25T05:59:50;11.93;;;6.50;;
18125;SDS011;53956;52.442;13.284;2023-04-25T06:02:16;13.00;;;6.03;;
18125;SDS011;53956;52.442;13.284;2023-04-25T06:04:43;10.47;;;6.57;;
18125;SDS011;53956;52.442;13.284;2023-04-25T06:07:10;12.60;;;6.30;;
18125;SDS011;53956;52.442;13.284;2023-04-25T06:09:37;11.03;;;6.17;;
18125;SDS011;53956;52.442;13.284;2023-04-25T06:12:05;13.07;;;6.73;;
18125;SDS011;53956;52.442;13.284;2023-04-25T06:14:32;13.37;;;6.77;;
18125;SDS011;53956;52.442;13.284;2023-04-25T06:17:00;11.43;;;6.97;;
18125;SDS011;53956;52.442;13.284;2023-04-25T06:19:31;11.67;;;6.50;;
18125;SDS011;53956;52.442;13.284;2023-04-25T06:21:58;11.30;;;6.43;;
18125;SDS011;53956;52.442;13.284;2023-04-25T06:24:24;11.97;;;6.40;;
18125;SDS011;53956;52.442;13.284;2023-04-25T06:26:51;11.57;;;6.90;;
18125;SDS011;53956;52.442;13.284;2023-04-25T06:29:18;12.13;;;7.00;;
18125;SDS011;53956;52.442;13.284;2023-04-25T06:31:45;12.73;;;6.90;;
18125;SDS011;53956;52.442;13.284;2023-04-25T06:34:14;15.43;;;7.33;;
18125;SDS011;53956;52.442;13.284;2023-04-25T06:36:41;17.03;;;7.33;;
18125;SDS011;53956;52.442;13.284;2023-04-25T06:39:12;12.17;;;6.93;;
18125;SDS011;53956;52.442;13.284;2023-04-25T06:41:39;13.03;;;6.77;;
18125;SDS011;53956;52.442;13.284;2023-04-25T06:44:13;12.57;;;6.70;;
18125;SDS011;53956;52.442;13.284;2023-04-25T06:46:49;12.50;;;6.17;;
18125;SDS011;53956;52.442;13.284;2023-04-25T06:49:17;11.80;;;6.83;;
18125;SDS011;53956;52.442;13.284;2023-04-25T06:51:44;10.73;;;6.30;;
18125;SDS011;53956;52.442;13.284;2023-04-25T06:54:11;14.30;;;6.37;;
18125;SDS011;53956;52.442;13.284;2023-04-25T06:56:45;10.87;;;6.37;;
18125;SDS011;53956;52.442;13.284;2023-04-25T06:59:13;9.93;;;5.90;;
18125;SDS011;53956;52.442;13.284;2023-04-25T07:01:42;9.30;;;5.67;;
18125;SDS011;53956;52.442;13.284;2023-04-25T07:04:19;13.80;;;6.07;;
18125;SDS011;53956;52.442;13.284;2023-04-25T07:06:53;11.53;;;5.63;;
18125;SDS011;53956;52.442;13.284;2023-04-25T07:09:27;9.13;;;5.30;;
18125;SDS011;53956;52.442;13.284;2023-04-25T07:11:54;10.90;;;5.60;;
18125;SDS011;53956;52.442;13.284;2023-04-25T07:14:21;9.90;;;5.87;;
18125;SDS011;53956;52.442;13.284;2023-04-25T07:16:48;9.47;;;5.50;;
18125;SDS011;53956;52.442;13.284;2023-04-25T07:19:15;7.53;;;4.83;;
18125;SDS011;53956;52.442;13.284;2023-04-25T07:21:43;8.47;;;5.10;;
18125;SDS011;53956;52.442;13.284;2023-04-25T07:24:11;5.63;;;4.93;;
18125;SDS011;53956;52.442;13.284;2023-04-25T07:26:42;7.83;;;5.60;;
18125;SDS011;53956;52.442;13.284;2023-04-25T07:29:22;11.93;;;5.50;;
18125;SDS011;53956;52.442;13.284;2023-04-25T07:31:49;12.57;;;5.63;;
18125;SDS011;53956;52.442;13.284;2023-04-25T07:34:16;12.90;;;5.23;;
18125;SDS011;53956;52.442;13.284;2023-04-25T07:36:44;9.10;;;5.17;;
18125;SDS011;53956;52.442;13.284;2023-04-25T07:39:11;12.00;;;5.00;;
18125;SDS011;53956;52.442;13.284;2023-04-25T07:41:38;13.70;;;5.47;;
18125;SDS011;53956;52.442;13.284;2023-04-25T07:44:07;17.60;;;5.63;;
18125;SDS011;53956;52.442;13.284;2023-04-25T07:46:34;12.47;;;5.10;;
18125;SDS011;53956;52.442;13.284;2023-04-25T07:49:02;18.60;;;5.37;;
18125;SDS011;53956;52.442;13.284;2023-04-25T07:51:29;13.07;;;5.33;;
18125;SDS011;53956;52.442;13.284;2023-04-25T07:54:02;13.97;;;5.37;;
18125;SDS011;53956;52.442;13.284;2023-04-25T07:56:32;16.23;;;5.87;;
18125;SDS011;53956;52.442;13.284;2023-04-25T07:58:58;16.43;;;5.77;;
18125;SDS011;53956;52.442;13.284;2023-04-25T08:01:25;19.53;;;5.77;;
18125;SDS011;53956;52.442;13.284;2023-04-25T08:03:57;16.13;;;5.23;;
18125;SDS011;53956;52.442;13.284;2023-04-25T08:06:33;15.23;;;5.57;;
18125;SDS011;53956;52.442;13.284;2023-04-25T08:09:10;18.40;;;5.87;;
18125;SDS011;53956;52.442;13.284;2023-04-25T08:11:38;15.00;;;5.47;;
18125;SDS011;53956;52.442;13.284;2023-04-25T08:14:07;15.47;;;5.67;;
18125;SDS011;53956;52.442;13.284;2023-04-25T08:16:35;17.27;;;4.87;;
18125;SDS011;53956;52.442;13.284;2023-04-25T08:19:02;15.63;;;5.40;;
18125;SDS011;53956;52.442;13.284;2023-04-25T08:21:30;17.23;;;4.90;;
18125;SDS011;53956;52.442;13.284;2023-04-25T08:24:00;19.43;;;4.47;;
18125;SDS011;53956;52.442;13.284;2023-04-25T08:26:32;14.53;;;4.77;;
18125;SDS011;53956;52.442;13.284;2023-04-25T08:28:59;15.77;;;4.80;;
18125;SDS011;53956;52.442;13.284;2023-04-25T08:31:26;15.43;;;4.63;;
18125;SDS011;53956;52.442;13.284;2023-04-25T08:33:57;14.93;;;4.73;;
18125;SDS011;53956;52.442;13.284;2023-04-25T08:36:34;19.30;;;4.60;;
18125;SDS011;53956;52.442;13.284;2023-04-25T08:39:01;15.43;;;4.27;;
18125;SDS011;53956;52.442;13.284;2023-04-25T08:41:35;16.20;;;4.40;;
18125;SDS011;53956;52.442;13.284;2023-04-25T08:44:05;16.80;;;4.60;;
18125;SDS011;53956;52.442;13.284;2023-04-25T08:46:34;12.93;;;4.07;;
18125;SDS011;53956;52.442;13.284;2023-04-25T08:49:11;15.37;;;4.33;;
18125;SDS011;53956;52.442;13.284;2023-04-25T08:51:40;13.03;;;4.20;;
18125;SDS011;53956;52.442;13.284;2023-04-25T08:54:11;14.20;;;4.20;;
18125;SDS011;53956;52.442;13.284;2023-04-25T08:56:41;14.97;;;4.17;;
18125;SDS011;53956;52.442;13.284;2023-04-25T08:59:12;11.97;;;3.93;;
18125;SDS011;53956;52.442;13.284;2023-04-25T09:01:40;17.63;;;4.03;;
18125;SDS011;53956;52.442;13.284;2023-04-25T09:04:07;14.00;;;4.03;;
18125;SDS011;53956;52.442;13.284;2023-04-25T09:06:33;14.10;;;4.10;;
18125;SDS011;53956;52.442;13.284;2023-04-25T09:09:02;14.87;;;3.83;;
18125;SDS011;53956;52.442;13.284;2023-04-25T09:11:30;14.37;;;3.87;;
18125;SDS011;53956;52.442;13.284;2023-04-25T09:14:12;13.93;;;3.90;;
18125;SDS011;53956;52.442;13.284;2023-04-25T09:16:58;13.90;;;3.60;;
18125;SDS011;53956;52.442;13.284;2023-04-25T09:19:35;14.47;;;3.60;;
18125;SDS011;53956;52.442;13.284;2023-04-25T09:22:06;14.23;;;4.23;;
18125;SDS011;53956;52.442;13.284;2023-04-25T09:24:35;11.20;;;4.00;;
18125;SDS011;53956;52.442;13.284;2023-04-25T09:27:04;15.30;;;3.90;;
18125;SDS011;53956;52.442;13.284;2023-04-25T09:29:33;12.33;;;4.23;;
18125;SDS011;53956;52.442;13.284;2023-04-25T09:32:10;15.53;;;4.50;;
18125;SDS011;53956;52.442;13.284;2023-04-25T09:34:39;15.97;;;4.70;;
18125;SDS011;53956;52.442;13.284;2023-04-25T09:37:07;15.90;;;3.60;;
18125;SDS011;53956;52.442;13.284;2023-04-25T09:39:56;12.13;;;4.03;;
18125;SDS011;53956;52.442;13.284;2023-04-25T09:42:25;16.13;;;4.40;;
18125;SDS011;53956;52.442;13.284;2023-04-25T09:44:55;13.57;;;4.53;;
18125;SDS011;53956;52.442;13.284;2023-04-25T09:47:24;14.10;;;4.13;;
18125;SDS011;53956;52.442;13.284;2023-04-25T09:49:53;17.03;;;4.03;;
18125;SDS011;53956;52.442;13.284;2023-04-25T09:52:21;15.63;;;4.23;;
18125;SDS011;53956;52.442;13.284;2023-04-25T09:55:15;12.83;;;3.97;;
18125;SDS011;53956;52.442;13.284;2023-04-25T09:57:43;17.43;;;4.20;;
18125;SDS011;53956;52.442;13.284;2023-04-25T10:00:16;15.47;;;4.10;;
18125;SDS011;53956;52.442;13.284;2023-04-25T10:02:45;18.27;;;3.90;;
18125;SDS011;53956;52.442;13.284;2023-04-25T10:05:36;10.80;;;3.90;;
18125;SDS011;53956;52.442;13.284;2023-04-25T10:08:03;23.23;;;4.57;;
18125;SDS011;53956;52.442;13.284;2023-04-25T10:10:31;14.27;;;3.67;;
18125;SDS011;53956;52.442;13.284;2023-04-25T10:13:02;12.20;;;4.00;;
18125;SDS011;53956;52.442;13.284;2023-04-25T10:15:31;12.17;;;3.90;;
18125;SDS011;53956;52.442;13.284;2023-04-25T10:18:00;15.27;;;3.73;;
18125;SDS011;53956;52.442;13.284;2023-04-25T10:20:27;13.53;;;3.67;;
18125;SDS011;53956;52.442;13.284;2023-04-25T10:22:55;13.00;;;4.07;;
18125;SDS011;53956;52.442;13.284;2023-04-25T10:25:26;17.40;;;3.83;;
18125;SDS011;53956;52.442;13.284;2023-04-25T10:27:53;14.50;;;3.70;;
18125;SDS011;53956;52.442;13.284;2023-04-25T10:30:20;12.60;;;3.60;;
18125;SDS011;53956;52.442;13.284;2023-04-25T10:32:48;13.10;;;3.93;;
18125;SDS011;53956;52.442;13.284;2023-04-25T10:35:16;16.03;;;3.60;;
18125;SDS011;53956;52.442;13.284;2023-04-25T10:37:56;10.17;;;3.40;;
18125;SDS011;53956;52.442;13.284;2023-04-25T10:40:24;11.03;;;3.60;;
18125;SDS011;53956;52.442;13.284;2023-04-25T10:42:51;10.57;;;4.07;;
18125;SDS011;53956;52.442;13.284;2023-04-25T10:45:18;13.57;;;4.00;;
18125;SDS011;53956;52.442;13.284;2023-04-25T10:47:46;11.37;;;3.57;;
18125;SDS011;53956;52.442;13.284;2023-04-25T10:50:15;15.13;;;3.60;;
18125;SDS011;53956;52.442;13.284;2023-04-25T10:52:42;10.30;;;3.90;;
18125;SDS011;53956;52.442;13.284;2023-04-25T10:55:09;10.20;;;3.67;;
18125;SDS011;53956;52.442;13.284;2023-04-25T10:57:36;15.67;;;4.40;;
18125;SDS011;53956;52.442;13.284;2023-04-25T11:00:05;15.60;;;4.10;;
18125;SDS011;53956;52.442;13.284;2023-04-25T11:02:42;10.13;;;3.40;;
18125;SDS011;53956;52.442;13.284;2023-04-25T11:05:18;13.50;;;4.03;;
18125;SDS011;53956;52.442;13.284;2023-04-25T11:07:49;11.80;;;3.30;;
18125;SDS011;53956;52.442;13.284;2023-04-25T11:10:17;8.60;;;3.40;;
18125;SDS011;53956;52.442;13.284;2023-04-25T11:12:45;20.23;;;4.23;;
18125;SDS011;53956;52.442;13.284;2023-04-25T11:15:12;9.03;;;3.53;;
18125;SDS011;53956;52.442;13.284;2023-04-25T11:17:39;15.87;;;4.00;;
18125;SDS011;53956;52.442;13.284;2023-04-25T11:20:07;7.03;;;3.10;;
18125;SDS011;53956;52.442;13.284;2023-04-25T11:22:38;23.47;;;3.83;;
18125;SDS011;53956;52.442;13.284;2023-04-25T11:25:07;10.33;;;3.60;;
18125;SDS011;53956;52.442;13.284;2023-04-25T11:27:37;10.40;;;3.30;;
18125;SDS011;53956;52.442;13.284;2023-04-25T11:30:09;9.80;;;2.90;;
18125;SDS011;53956;52.442;13.284;2023-04-25T11:32:38;7.33;;;2.70;;
18125;SDS011;53956;52.442;13.284;2023-04-25T11:35:06;10.13;;;3.30;;
18125;SDS011;53956;52.442;13.284;2023-04-25T11:37:33;9.60;;;3.50;;
18125;SDS011;53956;52.442;13.284;2023-04-25T11:40:01;9.20;;;3.10;;
18125;SDS011;53956;52.442;13.284;2023-04-25T11:42:31;7.23;;;2.90;;
18125;SDS011;53956;52.442;13.284;2023-04-25T11:44:58;8.50;;;2.73;;
18125;SDS011;53956;52.442;13.284;2023-04-25T11:47:27;8.27;;;2.93;;
18125;SDS011;53956;52.442;13.284;2023-04-25T11:49:55;8.47;;;2.90;;
18125;SDS011;53956;52.442;13.284;2023-04-25T11:52:21;8.70;;;2.90;;
18125;SDS011;53956;52.442;13.284;2023-04-25T11:54:48;9.47;;;2.87;;
18125;SDS011;53956;52.442;13.284;2023-04-25T11:57:16;8.27;;;2.77;;
18125;SDS011;53956;52.442;13.284;2023-04-25T11:59:45;9.50;;;3.20;;
18125;SDS011;53956;52.442;13.284;2023-04-25T12:02:23;10.20;;;3.20;;
18125;SDS011;53956;52.442;13.284;2023-04-25T12:04:50;7.83;;;3.00;;
18125;SDS011;53956;52.442;13.284;2023-04-25T12:07:16;9.87;;;2.93;;
18125;SDS011;53956;52.442;13.284;2023-04-25T12:09:50;6.53;;;3.03;;
18125;SDS011;53956;52.442;13.284;2023-04-25T12:12:19;11.10;;;3.00;;
18125;SDS011;53956;52.442;13.284;2023-04-25T12:14:46;7.53;;;2.93;;
18125;SDS011;53956;52.442;13.284;2023-04-25T12:17:14;8.17;;;2.90;;
18125;SDS011;53956;52.442;13.284;2023-04-25T12:19:42;8.17;;;2.90;;
18125;SDS011;53956;52.442;13.284;2023-04-25T12:22:19;7.43;;;2.93;;
18125;SDS011;53956;52.442;13.284;2023-04-25T12:24:47;12.80;;;3.47;;
18125;SDS011;53956;52.442;13.284;2023-04-25T12:27:14;6.83;;;2.63;;
18125;SDS011;53956;52.442;13.284;2023-04-25T12:29:51;8.67;;;3.10;;
18125;SDS011;53956;52.442;13.284;2023-04-25T12:32:19;7.70;;;2.70;;
18125;SDS011;53956;52.442;13.284;2023-04-25T12:34:45;7.17;;;2.80;;
18125;SDS011;53956;52.442;13.284;2023-04-25T12:37:12;8.63;;;3.57;;
18125;SDS011;53956;52.442;13.284;2023-04-25T12:39:40;8.63;;;2.83;;
18125;SDS011;53956;52.442;13.284;2023-04-25T12:42:06;11.43;;;3.40;;
18125;SDS011;53956;52.442;13.284;2023-04-25T12:44:36;8.73;;;3.10;;
18125;SDS011;53956;52.442;13.284;2023-04-25T12:47:04;9.57;;;3.10;;
18125;SDS011;53956;52.442;13.284;2023-04-25T12:49:31;11.07;;;3.20;;
18125;SDS011;53956;52.442;13.284;2023-04-25T12:51:58;9.10;;;3.07;;
18125;SDS011;53956;52.442;13.284;2023-04-25T12:54:25;6.60;;;2.80;;
18125;SDS011;53956;52.442;13.284;2023-04-25T12:56:51;10.77;;;3.40;;
18125;SDS011;53956;52.442;13.284;2023-04-25T12:59:18;8.17;;;2.90;;
18125;SDS011;53956;52.442;13.284;2023-04-25T13:01:46;10.23;;;3.33;;
18125;SDS011;53956;52.442;13.284;2023-04-25T13:04:14;8.00;;;2.90;;
18125;SDS011;53956;52.442;13.284;2023-04-25T13:06:40;7.17;;;3.20;;
18125;SDS011;53956;52.442;13.284;2023-04-25T13:09:07;8.20;;;2.63;;
18125;SDS011;53956;52.442;13.284;2023-04-25T13:11:34;11.07;;;3.13;;
18125;SDS011;53956;52.442;13.284;2023-04-25T13:14:01;6.43;;;2.90;;
18125;SDS011;53956;52.442;13.284;2023-04-25T13:16:28;10.27;;;3.30;;
18125;SDS011;53956;52.442;13.284;2023-04-25T13:18:54;8.10;;;2.70;;
18125;SDS011;53956;52.442;13.284;2023-04-25T13:21:23;7.57;;;2.90;;
18125;SDS011;53956;52.442;13.284;2023-04-25T13:23:50;8.60;;;2.63;;
18125;SDS011;53956;52.442;13.284;2023-04-25T13:26:17;8.47;;;2.80;;
18125;SDS011;53956;52.442;13.284;2023-04-25T13:28:43;7.17;;;3.00;;
18125;SDS011;53956;52.442;13.284;2023-04-25T13:31:10;7.47;;;2.53;;
18125;SDS011;53956;52.442;13.284;2023-04-25T13:33:37;8.27;;;2.90;;
18125;SDS011;53956;52.442;13.284;2023-04-25T13:36:03;7.67;;;2.90;;
18125;SDS011;53956;52.442;13.284;2023-04-25T13:38:32;9.53;;;3.00;;
18125;SDS011;53956;52.442;13.284;2023-04-25T13:40:58;8.70;;;3.10;;
18125;SDS011;53956;52.442;13.284;2023-04-25T13:43:25;11.33;;;2.83;;
18125;SDS011;53956;52.442;13.284;2023-04-25T13:45:52;7.47;;;2.80;;
18125;SDS011;53956;52.442;13.284;2023-04-25T13:48:19;6.67;;;2.70;;
18125;SDS011;53956;52.442;13.284;2023-04-25T13:50:46;9.57;;;2.70;;
18125;SDS011;53956;52.442;13.284;2023-04-25T13:53:13;11.90;;;3.07;;
18125;SDS011;53956;52.442;13.284;2023-04-25T13:55:41;11.63;;;3.10;;
18125;SDS011;53956;52.442;13.284;2023-04-25T13:58:07;8.30;;;2.97;;
18125;SDS011;53956;52.442;13.284;2023-04-25T14:00:35;5.50;;;2.83;;
18125;SDS011;53956;52.442;13.284;2023-04-25T14:03:04;6.63;;;2.93;;
18125;SDS011;53956;52.442;13.284;2023-04-25T14:05:32;11.03;;;3.30;;
18125;SDS011;53956;52.442;13.284;2023-04-25T14:08:03;6.83;;;3.00;;
18125;SDS011;53956;52.442;13.284;2023-04-25T14:10:30;7.67;;;3.40;;
18125;SDS011;53956;52.442;13.284;2023-04-25T14:12:58;9.30;;;3.37;;
18125;SDS011;53956;52.442;13.284;2023-04-25T14:15:25;6.70;;;3.13;;
18125;SDS011;53956;52.442;13.284;2023-04-25T14:17:52;6.47;;;2.87;;
18125;SDS011;53956;52.442;13.284;2023-04-25T14:20:19;9.20;;;2.80;;
18125;SDS011;53956;52.442;13.284;2023-04-25T14:22:46;6.23;;;2.50;;
18125;SDS011;53956;52.442;13.284;2023-04-25T14:25:14;10.70;;;3.23;;
18125;SDS011;53956;52.442;13.284;2023-04-25T14:27:41;8.43;;;3.30;;
18125;SDS011;53956;52.442;13.284;2023-04-25T14:30:10;10.57;;;3.13;;
18125;SDS011;53956;52.442;13.284;2023-04-25T14:32:37;6.37;;;2.90;;
18125;SDS011;53956;52.442;13.284;2023-04-25T14:35:04;11.97;;;3.53;;
18125;SDS011;53956;52.442;13.284;2023-04-25T14:37:32;7.10;;;2.97;;
18125;SDS011;53956;52.442;13.284;2023-04-25T14:39:59;7.63;;;2.90;;
18125;SDS011;53956;52.442;13.284;2023-04-25T14:42:25;5.03;;;2.83;;
18125;SDS011;53956;52.442;13.284;2023-04-25T14:44:52;6.77;;;3.23;;